Time;durP1;ratioP1;P1;durP2;ratioP2;P2;SDS_P1;SDS_P2;PMS_P1;PMS_P2;Temp;Humidity;BMP_temperature;BMP_pressure;BME280_temperature;BME280_humidity;BME280_pressure;Samples;Min_cycle;Max_cycle;Signal;HPM_P1;HPM_P2
2021/01/15 00:01:18;;;;;;;25.50;12.60;;;0.50;99.90;;;;;;5083676;28;38923;-74
2021/01/15 00:03:44;;;;;;;22.37;13.60;;;0.60;99.90;;;;;;5051428;28;38961;-74
2021/01/15 00:06:22;;;;;;;24.93;13.40;;;0.60;99.90;;;;;;5064586;28;35580;-75
2021/01/15 00:08:49;;;;;;;22.57;14.87;;;0.60;99.90;;;;;;5061073;28;39867;-74
2021/01/15 00:11:19;;;;;;;21.17;14.03;;;0.50;99.90;;;;;;5069165;28;38262;-75
2021/01/15 00:13:45;;;;;;;22.23;14.23;;;0.50;99.90;;;;;;5091731;28;37613;-75
2021/01/15 00:16:22;;;;;;;22.57;13.20;;;0.40;99.90;;;;;;5080043;28;37966;-74
2021/01/15 00:18:50;;;;;;;23.03;13.27;;;0.40;99.90;;;;;;5082007;28;37899;-74
2021/01/15 00:21:28;;;;;;;21.17;13.10;;;0.40;99.90;;;;;;5066019;28;39322;-76
2021/01/15 00:23:57;;;;;;;21.27;13.57;;;0.30;99.90;;;;;;5064562;28;38909;-74
2021/01/15 00:26:25;;;;;;;22.23;13.13;;;0.30;99.90;;;;;;5068806;28;38109;-73
2021/01/15 00:28:52;;;;;;;20.77;13.57;;;0.30;99.90;;;;;;5073597;28;39745;-74
2021/01/15 00:31:19;;;;;;;25.23;13.77;;;0.30;99.90;;;;;;5077648;28;40555;-73
2021/01/15 00:33:46;;;;;;;26.33;14.17;;;0.30;99.90;;;;;;5089829;28;37652;-73
2021/01/15 00:36:12;;;;;;;21.80;13.77;;;0.30;99.90;;;;;;5082625;28;38405;-73
2021/01/15 00:38:38;;;;;;;23.67;13.57;;;0.30;99.90;;;;;;5086781;28;39110;-73
2021/01/15 00:41:07;;;;;;;21.37;12.60;;;0.30;99.90;;;;;;5079691;28;39758;-74
2021/01/15 00:43:34;;;;;;;21.80;13.10;;;0.30;99.90;;;;;;5056892;28;38311;-73
2021/01/15 00:46:00;;;;;;;22.23;12.50;;;0.30;99.90;;;;;;5066885;28;37726;-74
2021/01/15 00:48:27;;;;;;;21.10;13.10;;;0.20;99.90;;;;;;5083633;28;40489;-74
2021/01/15 00:50:53;;;;;;;22.13;13.17;;;0.30;99.90;;;;;;5086945;28;38361;-74
2021/01/15 00:53:19;;;;;;;22.93;13.17;;;0.20;99.90;;;;;;5077321;28;38794;-76
2021/01/15 00:55:45;;;;;;;18.63;13.50;;;0.30;99.90;;;;;;5083133;28;36986;-73
2021/01/15 00:58:12;;;;;;;24.00;13.80;;;0.30;99.90;;;;;;5070314;27;39085;-73
2021/01/15 01:00:39;;;;;;;21.73;13.43;;;0.20;99.90;;;;;;5080060;28;37101;-74
2021/01/15 01:03:08;;;;;;;20.90;13.40;;;0.20;99.90;;;;;;5076344;28;37779;-74
2021/01/15 01:05:36;;;;;;;19.13;12.27;;;0.20;99.90;;;;;;5084198;28;38554;-73
2021/01/15 01:08:02;;;;;;;23.17;14.00;;;0.20;99.90;;;;;;5074518;28;42375;-73
2021/01/15 01:10:28;;;;;;;18.70;11.87;;;0.20;99.90;;;;;;5065521;28;38064;-73
2021/01/15 01:12:54;;;;;;;20.33;12.30;;;0.20;99.90;;;;;;5077345;28;38728;-73
2021/01/15 01:15:20;;;;;;;20.77;12.40;;;0.20;99.90;;;;;;5072194;28;37013;-73
2021/01/15 01:17:47;;;;;;;22.27;13.03;;;0.30;99.90;;;;;;5088573;28;38645;-73
2021/01/15 01:20:13;;;;;;;19.23;11.70;;;0.30;99.90;;;;;;5069301;28;38972;-73
2021/01/15 01:22:39;;;;;;;19.63;11.90;;;0.20;99.90;;;;;;5070135;28;38976;-73
2021/01/15 01:25:07;;;;;;;20.90;11.40;;;0.20;99.90;;;;;;5067440;28;39214;-74
2021/01/15 01:27:33;;;;;;;15.93;11.33;;;0.20;99.90;;;;;;5061801;28;39598;-74
2021/01/15 01:29:59;;;;;;;19.33;12.30;;;0.20;99.90;;;;;;5075435;28;38494;-74
2021/01/15 01:32:25;;;;;;;19.80;10.93;;;0.20;99.90;;;;;;5075539;28;39530;-73
2021/01/15 01:34:51;;;;;;;17.23;11.47;;;0.30;99.90;;;;;;5066337;28;37422;-74
2021/01/15 01:37:18;;;;;;;16.53;10.60;;;0.20;99.90;;;;;;5070382;28;39905;-73
2021/01/15 01:39:44;;;;;;;17.73;10.43;;;0.20;99.90;;;;;;5071639;28;38968;-76
2021/01/15 01:42:10;;;;;;;16.90;11.13;;;0.20;99.90;;;;;;5071485;28;38884;-74
2021/01/15 01:44:36;;;;;;;14.13;10.60;;;0.20;99.90;;;;;;5074572;28;36509;-74
2021/01/15 01:47:03;;;;;;;15.80;9.50;;;0.20;99.90;;;;;;5077860;28;39765;-76
2021/01/15 01:49:31;;;;;;;12.97;9.87;;;0.20;99.90;;;;;;5079812;28;38449;-76
2021/01/15 01:51:57;;;;;;;15.13;10.30;;;0.20;99.90;;;;;;5062766;28;36999;-76
2021/01/15 01:54:23;;;;;;;18.60;10.57;;;0.30;99.90;;;;;;5076171;28;39102;-73
2021/01/15 01:56:49;;;;;;;15.23;10.03;;;0.20;99.90;;;;;;5079182;28;40716;-76
2021/01/15 01:59:16;;;;;;;15.63;10.40;;;0.20;99.90;;;;;;5074519;28;39754;-76
2021/01/15 02:01:42;;;;;;;16.33;9.80;;;0.20;99.90;;;;;;5074348;28;39026;-75
2021/01/15 02:04:08;;;;;;;15.70;9.80;;;0.30;99.90;;;;;;5084491;28;37796;-76
2021/01/15 02:06:35;;;;;;;17.97;10.27;;;0.30;99.90;;;;;;5066819;28;38882;-76
2021/01/15 02:09:05;;;;;;;17.37;9.87;;;0.30;99.90;;;;;;5069473;28;40134;-73
2021/01/15 02:11:51;;;;;;;14.93;10.13;;;0.30;99.90;;;;;;5092714;28;37729;-74
2021/01/15 02:14:47;;;;;;;16.47;10.07;;;0.30;99.90;;;;;;5073450;28;38367;-74
2021/01/15 02:17:16;;;;;;;17.40;10.23;;;0.30;99.90;;;;;;5075675;28;39808;-73
2021/01/15 02:19:51;;;;;;;14.13;9.97;;;0.30;99.90;;;;;;5074518;28;39236;-73
2021/01/15 02:22:35;;;;;;;16.60;10.30;;;0.30;99.90;;;;;;5076764;28;37938;-76
2021/01/15 02:25:01;;;;;;;13.73;9.97;;;0.20;99.90;;;;;;5068417;28;37991;-75
2021/01/15 02:28:03;;;;;;;13.77;9.97;;;0.20;99.90;;;;;;5071574;28;40883;-76
2021/01/15 02:30:41;;;;;;;17.00;9.93;;;0.10;99.90;;;;;;5075692;28;47417;-74
2021/01/15 02:33:55;;;;;;;15.10;10.23;;;0.10;99.90;;;;;;5087114;28;37439;-76
2021/01/15 02:36:33;;;;;;;15.87;10.17;;;0.10;99.90;;;;;;5040452;28;36384;-75
2021/01/15 02:39:25;;;;;;;17.47;11.43;;;0.00;99.90;;;;;;5082423;28;39445;-76
2021/01/15 02:41:55;;;;;;;16.33;11.43;;;0.00;99.90;;;;;;5089667;28;48744;-75
2021/01/15 02:44:22;;;;;;;17.70;11.90;;;0.00;99.90;;;;;;5092210;28;39236;-75
2021/01/15 02:47:00;;;;;;;17.67;11.27;;;0.00;99.90;;;;;;5091374;28;37732;-76
2021/01/15 02:49:27;;;;;;;17.17;11.80;;;0.00;99.90;;;;;;5075174;28;40843;-76
2021/01/15 02:51:54;;;;;;;16.37;10.90;;;0.00;99.90;;;;;;5085129;28;36926;-76
2021/01/15 02:54:20;;;;;;;20.63;12.87;;;0.00;99.90;;;;;;5064729;28;37041;-76
2021/01/15 02:56:47;;;;;;;17.83;11.47;;;0.00;99.90;;;;;;5062621;28;38089;-76
2021/01/15 02:59:13;;;;;;;19.33;11.63;;;0.00;99.90;;;;;;5069950;28;38169;-76
2021/01/15 03:01:57;;;;;;;16.83;11.70;;;0.00;99.90;;;;;;5082445;28;39712;-76
2021/01/15 03:04:55;;;;;;;15.27;11.47;;;0.00;99.90;;;;;;5077179;28;38029;-76
2021/01/15 03:07:23;;;;;;;18.03;12.03;;;0.00;99.90;;;;;;5076325;28;38421;-76
2021/01/15 03:09:54;;;;;;;21.27;12.40;;;-0.10;99.90;;;;;;5090362;28;39570;-76
2021/01/15 03:12:24;;;;;;;16.10;11.93;;;-0.10;99.90;;;;;;5075179;28;38203;-76
2021/01/15 03:14:52;;;;;;;18.40;13.03;;;-0.10;99.90;;;;;;5083179;28;39965;-76
2021/01/15 03:17:23;;;;;;;19.83;13.00;;;-0.10;99.90;;;;;;5073768;28;38196;-75
2021/01/15 03:19:50;;;;;;;16.87;12.63;;;-0.10;99.90;;;;;;5075442;28;39596;-76
2021/01/15 03:22:19;;;;;;;18.20;13.50;;;-0.20;99.90;;;;;;5078103;28;38511;-76
2021/01/15 03:24:56;;;;;;;20.07;12.60;;;-0.20;99.90;;;;;;5074063;28;38340;-76
2021/01/15 03:27:23;;;;;;;21.93;13.77;;;-0.20;99.90;;;;;;5059220;28;38097;-76
2021/01/15 03:29:50;;;;;;;17.53;12.20;;;-0.20;99.90;;;;;;5062922;28;40374;-76
2021/01/15 03:32:16;;;;;;;20.40;12.53;;;-0.20;99.90;;;;;;5073938;28;38386;-76
2021/01/15 03:34:43;;;;;;;16.70;12.67;;;-0.20;99.90;;;;;;5083385;28;36682;-77
2021/01/15 03:37:09;;;;;;;18.63;12.57;;;-0.20;99.90;;;;;;5080907;28;38369;-76
2021/01/15 03:39:35;;;;;;;17.50;12.93;;;-0.20;99.90;;;;;;5070665;28;39689;-75
2021/01/15 03:42:02;;;;;;;15.83;12.07;;;-0.20;99.90;;;;;;5072096;28;38587;-75
2021/01/15 03:44:28;;;;;;;16.47;12.47;;;-0.20;99.90;;;;;;5078631;28;36695;-74
2021/01/15 03:46:55;;;;;;;16.80;12.47;;;-0.10;99.90;;;;;;5082077;28;38576;-75
2021/01/15 03:49:22;;;;;;;20.50;12.87;;;-0.10;99.90;;;;;;5078342;28;39347;-75
2021/01/15 03:51:48;;;;;;;20.10;12.70;;;0.00;99.90;;;;;;5067109;28;36690;-74
2021/01/15 03:54:14;;;;;;;19.80;12.87;;;0.10;99.90;;;;;;5070454;28;38011;-74
2021/01/15 03:56:41;;;;;;;17.33;11.87;;;0.20;99.90;;;;;;5087783;28;36233;-75
2021/01/15 03:59:07;;;;;;;18.00;12.27;;;0.30;99.90;;;;;;5083927;28;39653;-75
2021/01/15 04:01:36;;;;;;;16.80;11.10;;;0.40;99.90;;;;;;5077292;28;39373;-75
2021/01/15 04:04:03;;;;;;;18.13;11.30;;;0.50;99.90;;;;;;5088169;27;38898;-75
2021/01/15 04:06:29;;;;;;;14.10;10.60;;;0.50;99.90;;;;;;5086496;28;37650;-75
2021/01/15 04:08:55;;;;;;;13.50;10.60;;;0.60;99.90;;;;;;5084529;28;39293;-74
2021/01/15 04:11:22;;;;;;;14.50;9.97;;;0.70;99.90;;;;;;5079855;28;39455;-75
2021/01/15 04:13:48;;;;;;;15.93;10.40;;;0.70;99.90;;;;;;5079721;28;38103;-74
2021/01/15 04:16:15;;;;;;;14.83;10.27;;;0.80;99.90;;;;;;5087582;28;38392;-75
2021/01/15 04:18:42;;;;;;;13.47;9.27;;;0.80;99.90;;;;;;5060201;28;38270;-75
2021/01/15 04:21:08;;;;;;;15.67;10.07;;;0.90;99.90;;;;;;5075648;28;39769;-75
2021/01/15 04:23:35;;;;;;;13.37;9.03;;;0.90;99.90;;;;;;5090786;28;38352;-74
2021/01/15 04:26:01;;;;;;;11.93;8.70;;;0.90;99.90;;;;;;5070198;28;38263;-75
2021/01/15 04:28:28;;;;;;;13.20;9.33;;;1.00;99.90;;;;;;5070607;28;39478;-75
2021/01/15 04:30:54;;;;;;;11.23;8.33;;;0.90;99.90;;;;;;5081964;28;38785;-74
2021/01/15 04:33:20;;;;;;;13.03;8.67;;;1.00;99.90;;;;;;5071515;28;39850;-75
2021/01/15 04:35:46;;;;;;;16.67;9.50;;;1.00;99.90;;;;;;5074362;28;37920;-74
2021/01/15 04:38:12;;;;;;;11.63;8.97;;;1.00;99.90;;;;;;5063819;28;39545;-74
2021/01/15 04:40:38;;;;;;;11.43;8.27;;;1.00;99.90;;;;;;5071484;28;38385;-74
2021/01/15 04:43:06;;;;;;;14.53;8.70;;;1.10;99.90;;;;;;5070686;28;37550;-74
2021/01/15 04:45:32;;;;;;;12.57;8.50;;;1.10;99.90;;;;;;5088507;28;37228;-75
2021/01/15 04:47:58;;;;;;;11.97;8.63;;;1.10;99.90;;;;;;5086277;28;39421;-74
2021/01/15 04:50:25;;;;;;;11.33;8.63;;;1.20;99.90;;;;;;5065435;28;41832;-74
2021/01/15 04:52:53;;;;;;;10.73;7.17;;;1.20;99.90;;;;;;5084031;28;39021;-75
2021/01/15 04:55:22;;;;;;;12.03;8.03;;;1.20;99.90;;;;;;5082165;28;35551;-75
2021/01/15 04:57:53;;;;;;;11.03;7.73;;;1.20;99.90;;;;;;5069035;28;39781;-74
2021/01/15 05:00:22;;;;;;;11.67;8.10;;;1.20;99.90;;;;;;5065738;28;39733;-74
2021/01/15 05:02:49;;;;;;;11.33;7.00;;;1.20;99.90;;;;;;5088518;28;38300;-74
2021/01/15 05:05:26;;;;;;;9.60;6.77;;;1.30;99.90;;;;;;5077868;28;38992;-74
2021/01/15 05:08:12;;;;;;;9.00;7.00;;;1.30;99.90;;;;;;5075513;28;40548;-74
2021/01/15 05:10:43;;;;;;;8.10;5.77;;;1.40;99.90;;;;;;5084121;28;48526;-75
2021/01/15 05:13:11;;;;;;;8.57;5.90;;;1.40;99.90;;;;;;5071571;28;39348;-75
2021/01/15 05:15:46;;;;;;;8.67;6.50;;;1.40;99.90;;;;;;5073718;27;41048;-75
2021/01/15 05:18:13;;;;;;;8.40;6.67;;;1.40;99.90;;;;;;5080805;28;39646;-74
2021/01/15 05:20:39;;;;;;;15.97;6.90;;;1.50;99.90;;;;;;5077567;28;39109;-74
2021/01/15 05:23:08;;;;;;;11.67;6.97;;;1.40;99.90;;;;;;5063036;28;38896;-74
2021/01/15 05:25:40;;;;;;;12.60;6.73;;;1.40;99.90;;;;;;5070569;28;36121;-74
2021/01/15 05:28:06;;;;;;;8.23;5.60;;;1.50;99.90;;;;;;5057093;27;38675;-75
2021/01/15 05:30:34;;;;;;;8.97;5.87;;;1.50;99.90;;;;;;5045345;28;38814;-73
2021/01/15 05:33:00;;;;;;;10.83;6.07;;;1.50;99.90;;;;;;5046313;28;40487;-74
2021/01/15 05:35:44;;;;;;;10.67;6.50;;;1.50;99.90;;;;;;5054454;28;36940;-74
2021/01/15 05:38:12;;;;;;;10.73;6.87;;;1.50;99.90;;;;;;5056049;28;39993;-75
2021/01/15 05:41:01;;;;;;;8.63;5.80;;;1.50;99.90;;;;;;5054600;28;38106;-75
2021/01/15 05:43:33;;;;;;;12.23;6.47;;;1.50;99.90;;;;;;5060719;28;47127;-74
2021/01/15 05:46:20;;;;;;;10.20;6.20;;;1.50;99.90;;;;;;5054226;28;37436;-75
2021/01/15 05:48:47;;;;;;;8.57;6.63;;;1.50;99.90;;;;;;5064079;28;48743;-75
2021/01/15 05:51:26;;;;;;;10.40;7.23;;;1.60;99.90;;;;;;5055934;28;38947;-75
2021/01/15 05:53:53;;;;;;;9.97;7.10;;;1.60;99.90;;;;;;5052646;28;39285;-75
2021/01/15 05:56:20;;;;;;;10.37;7.53;;;1.60;99.90;;;;;;5062336;28;37064;-74
2021/01/15 05:59:29;;;;;;;11.10;7.47;;;1.60;99.90;;;;;;5050821;28;39768;-75
2021/01/15 06:02:00;;;;;;;10.90;8.67;;;1.60;99.90;;;;;;5047666;28;48425;-75
2021/01/15 06:04:34;;;;;;;11.40;8.47;;;1.60;99.90;;;;;;5060434;28;38081;-75
2021/01/15 06:07:15;;;;;;;14.57;8.10;;;1.50;99.90;;;;;;5071904;28;39077;-75
2021/01/15 06:09:43;;;;;;;11.27;8.13;;;1.60;99.90;;;;;;5068330;28;48198;-75
2021/01/15 06:12:17;;;;;;;10.37;7.90;;;1.50;99.90;;;;;;5072637;28;39932;-75
2021/01/15 06:14:57;;;;;;;12.03;8.60;;;1.50;99.90;;;;;;5074083;28;40160;-74
2021/01/15 06:17:25;;;;;;;12.50;8.63;;;1.50;99.90;;;;;;5068027;28;37448;-75
2021/01/15 06:20:01;;;;;;;10.97;8.30;;;1.50;99.90;;;;;;5081182;28;39473;-74
2021/01/15 06:22:37;;;;;;;12.53;8.10;;;1.50;99.90;;;;;;5082909;28;38473;-75
2021/01/15 06:25:21;;;;;;;12.30;8.67;;;1.50;99.90;;;;;;5070127;28;36730;-76
2021/01/15 06:27:48;;;;;;;13.00;8.80;;;1.50;99.90;;;;;;5077004;28;47243;-74
2021/01/15 06:30:14;;;;;;;12.47;9.07;;;1.50;99.90;;;;;;5071700;28;37540;-74
2021/01/15 06:32:45;;;;;;;12.50;8.70;;;1.50;99.90;;;;;;5058712;28;37793;-74
2021/01/15 06:35:31;;;;;;;12.73;8.80;;;1.50;99.90;;;;;;5056392;27;37561;-74
2021/01/15 06:38:04;;;;;;;14.00;8.63;;;1.50;99.90;;;;;;5056467;28;36013;-74
2021/01/15 06:40:38;;;;;;;14.93;8.93;;;1.50;99.90;;;;;;5075793;28;48060;-74
2021/01/15 06:43:25;;;;;;;14.17;9.07;;;1.50;99.90;;;;;;5087695;28;39166;-74
2021/01/15 06:46:02;;;;;;;12.30;8.97;;;1.60;99.90;;;;;;5086102;28;38364;-75
2021/01/15 06:48:35;;;;;;;18.20;10.10;;;1.50;99.90;;;;;;5084530;28;49001;-74
2021/01/15 06:51:06;;;;;;;12.33;8.77;;;1.50;99.90;;;;;;5079876;28;37875;-74
2021/01/15 06:53:34;;;;;;;10.70;7.67;;;1.60;99.90;;;;;;5090843;28;47342;-74
2021/01/15 06:56:05;;;;;;;14.80;9.73;;;1.60;99.90;;;;;;5067587;28;36163;-74
2021/01/15 06:58:38;;;;;;;13.80;9.40;;;1.50;99.90;;;;;;5074477;28;45862;-74
2021/01/15 07:01:15;;;;;;;14.20;8.83;;;1.50;99.90;;;;;;5087482;28;39878;-74
2021/01/15 07:04:19;;;;;;;11.17;8.43;;;1.60;99.90;;;;;;5079272;28;38799;-74
2021/01/15 07:07:09;;;;;;;16.77;9.73;;;1.60;99.90;;;;;;5092914;28;47288;-74
2021/01/15 07:09:36;;;;;;;14.73;10.70;;;1.60;99.90;;;;;;5062870;28;47746;-74
2021/01/15 07:12:08;;;;;;;16.40;12.47;;;1.60;99.90;;;;;;5069978;28;37960;-74
2021/01/15 07:14:44;;;;;;;17.17;12.48;;;1.60;99.90;;;;;;5073515;28;38343;-74
2021/01/15 07:17:33;;;;;;;18.93;10.83;;;1.70;99.90;;;;;;5069524;28;38863;-74
2021/01/15 07:20:19;;;;;;;16.33;10.57;;;1.70;99.90;;;;;;5059516;28;36842;-77
2021/01/15 07:22:53;;;;;;;14.67;10.37;;;1.70;99.90;;;;;;5076640;28;46239;-75
2021/01/15 07:25:21;;;;;;;17.77;10.97;;;1.70;99.90;;;;;;5081553;28;38145;-75
2021/01/15 07:27:48;;;;;;;15.70;10.77;;;1.70;99.90;;;;;;5077087;27;39233;-75
2021/01/15 07:30:23;;;;;;;15.63;9.43;;;1.70;99.90;;;;;;5088057;28;38104;-75
2021/01/15 07:32:54;;;;;;;11.60;8.97;;;1.70;99.90;;;;;;5095406;28;38515;-76
2021/01/15 07:35:23;;;;;;;13.03;8.53;;;1.80;99.90;;;;;;5078811;28;38684;-76
2021/01/15 07:37:49;;;;;;;17.07;8.87;;;1.80;99.90;;;;;;5059282;28;37543;-77
2021/01/15 07:40:17;;;;;;;14.83;8.90;;;1.80;99.90;;;;;;5075002;28;36095;-75
2021/01/15 07:42:43;;;;;;;16.83;10.07;;;1.90;99.90;;;;;;5056827;28;37757;-75
2021/01/15 07:45:33;;;;;;;12.77;9.30;;;1.90;99.90;;;;;;5059082;28;37659;-76
2021/01/15 07:48:02;;;;;;;12.83;9.07;;;2.00;99.90;;;;;;5070996;28;37263;-75
2021/01/15 07:50:29;;;;;;;12.60;9.60;;;1.90;99.90;;;;;;5090592;28;49143;-75
2021/01/15 07:53:17;;;;;;;14.87;9.47;;;1.90;99.90;;;;;;5081876;28;39799;-75
2021/01/15 07:55:52;;;;;;;14.13;9.83;;;1.90;99.90;;;;;;5086351;28;47390;-75
2021/01/15 07:58:21;;;;;;;14.07;9.53;;;1.90;99.90;;;;;;5078522;28;39576;-75
2021/01/15 08:00:47;;;;;;;14.73;9.83;;;1.90;99.90;;;;;;5080532;28;37265;-75
2021/01/15 08:03:14;;;;;;;13.73;9.97;;;1.90;99.90;;;;;;5079973;28;38667;-75
2021/01/15 08:05:43;;;;;;;14.87;9.67;;;1.90;99.90;;;;;;5072064;28;39739;-75
2021/01/15 08:08:16;;;;;;;14.60;9.63;;;1.90;99.90;;;;;;5070265;28;39099;-75
2021/01/15 08:10:44;;;;;;;15.38;9.85;;;1.90;99.90;;;;;;5057838;28;37557;-76
2021/01/15 08:13:28;;;;;;;16.07;10.80;;;1.90;99.90;;;;;;5073745;28;41232;-76
2021/01/15 08:15:55;;;;;;;15.33;11.13;;;1.90;99.90;;;;;;5086488;27;38619;-75
2021/01/15 08:18:23;;;;;;;15.60;10.20;;;1.90;99.90;;;;;;5080145;28;37451;-76
2021/01/15 08:20:54;;;;;;;15.60;10.10;;;1.90;99.90;;;;;;5065975;28;37206;-75
2021/01/15 08:23:29;;;;;;;18.77;11.10;;;1.90;99.90;;;;;;5089053;28;39869;-75
2021/01/15 08:26:01;;;;;;;15.83;10.63;;;1.90;99.90;;;;;;5088940;28;39935;-75
2021/01/15 08:28:28;;;;;;;14.60;10.40;;;1.90;99.90;;;;;;5082090;28;47499;-75
2021/01/15 08:31:08;;;;;;;18.33;11.27;;;2.00;99.90;;;;;;5075316;28;38286;-75
2021/01/15 08:33:35;;;;;;;14.47;11.07;;;2.10;99.90;;;;;;5066373;28;47597;-75
2021/01/15 08:36:03;;;;;;;14.53;10.87;;;2.00;99.90;;;;;;5082556;28;40377;-76
2021/01/15 08:38:31;;;;;;;19.33;11.73;;;2.00;99.90;;;;;;5073732;28;48936;-76
2021/01/15 08:40:59;;;;;;;18.60;11.33;;;2.10;99.90;;;;;;5072426;28;38456;-76
2021/01/15 08:43:26;;;;;;;15.60;10.93;;;2.10;99.90;;;;;;5068230;28;39197;-76
2021/01/15 08:45:53;;;;;;;17.30;11.73;;;2.20;99.90;;;;;;5079821;28;38710;-76
2021/01/15 08:48:22;;;;;;;16.20;11.30;;;2.20;99.90;;;;;;5076710;28;39528;-79
2021/01/15 08:50:49;;;;;;;14.67;10.93;;;2.30;99.90;;;;;;5070027;28;37874;-76
2021/01/15 08:53:22;;;;;;;15.97;11.47;;;2.30;99.90;;;;;;5080171;28;39915;-77
2021/01/15 08:55:53;;;;;;;17.93;11.83;;;2.30;99.90;;;;;;5084700;28;38074;-75
2021/01/15 08:58:20;;;;;;;16.20;10.90;;;2.30;99.90;;;;;;5090457;28;38635;-75
2021/01/15 09:00:46;;;;;;;15.93;11.07;;;2.40;99.90;;;;;;5093614;28;37816;-76
2021/01/15 09:03:17;;;;;;;17.73;12.30;;;2.50;99.90;;;;;;5093257;28;39832;-77
2021/01/15 09:05:46;;;;;;;17.17;11.17;;;2.50;99.90;;;;;;5089224;28;39130;-76
2021/01/15 09:08:16;;;;;;;19.07;11.53;;;2.60;99.90;;;;;;5092718;28;39620;-76
2021/01/15 09:10:47;;;;;;;15.97;11.50;;;2.60;99.90;;;;;;5074182;28;36376;-75
2021/01/15 09:13:14;;;;;;;18.80;12.27;;;2.60;99.90;;;;;;5086190;28;38816;-75
2021/01/15 09:15:40;;;;;;;15.90;10.47;;;2.60;99.90;;;;;;5077220;28;38654;-76
2021/01/15 09:18:06;;;;;;;19.13;11.40;;;2.60;99.90;;;;;;5081206;28;37854;-76
2021/01/15 09:20:32;;;;;;;17.57;12.37;;;2.70;99.90;;;;;;5081032;28;38951;-75
2021/01/15 09:22:58;;;;;;;21.53;12.27;;;2.70;99.90;;;;;;5060789;28;39749;-75
2021/01/15 09:25:25;;;;;;;19.00;10.17;;;2.70;99.90;;;;;;5076995;28;40295;-75
2021/01/15 09:27:51;;;;;;;17.47;11.17;;;2.70;99.90;;;;;;5078602;28;37885;-75
2021/01/15 09:30:18;;;;;;;16.73;10.57;;;2.70;99.90;;;;;;5072852;28;37134;-77
2021/01/15 09:32:45;;;;;;;18.17;11.87;;;2.70;99.90;;;;;;5076208;28;39033;-76
2021/01/15 09:35:14;;;;;;;18.57;11.50;;;2.70;99.90;;;;;;5093476;28;39601;-76
2021/01/15 09:37:40;;;;;;;16.53;10.83;;;2.70;99.90;;;;;;5089456;28;39970;-77
2021/01/15 09:40:07;;;;;;;16.23;11.07;;;2.80;99.90;;;;;;5098256;28;36337;-76
2021/01/15 09:42:33;;;;;;;16.80;11.23;;;2.70;99.90;;;;;;5079617;28;39321;-76
2021/01/15 09:45:00;;;;;;;16.30;10.77;;;2.70;99.90;;;;;;5096713;28;39779;-76
2021/01/15 09:47:29;;;;;;;16.90;10.77;;;2.70;99.90;;;;;;5076046;28;37852;-76
2021/01/15 09:49:55;;;;;;;17.57;11.00;;;2.80;99.90;;;;;;5082631;28;36363;-77
2021/01/15 09:52:21;;;;;;;16.17;10.07;;;2.70;99.90;;;;;;5078536;28;38317;-77
2021/01/15 09:54:47;;;;;;;15.13;10.23;;;2.70;99.90;;;;;;5080542;28;40050;-76
2021/01/15 09:57:13;;;;;;;16.33;11.17;;;2.70;99.90;;;;;;5076158;28;38674;-75
2021/01/15 09:59:39;;;;;;;15.70;10.50;;;2.70;99.90;;;;;;5059775;28;37719;-76
2021/01/15 10:02:06;;;;;;;15.90;10.57;;;2.70;99.90;;;;;;5080430;28;39221;-77
2021/01/15 10:04:32;;;;;;;19.50;11.37;;;2.70;99.90;;;;;;5082336;28;39056;-76
2021/01/15 10:06:58;;;;;;;17.87;11.23;;;2.80;99.90;;;;;;5078924;28;39142;-76
2021/01/15 10:09:24;;;;;;;21.67;10.13;;;2.80;99.90;;;;;;5063698;28;37555;-76
2021/01/15 10:11:50;;;;;;;18.60;11.33;;;2.80;99.90;;;;;;5073117;28;38361;-77
2021/01/15 10:14:17;;;;;;;15.90;10.90;;;2.80;99.90;;;;;;5077692;28;38711;-74
2021/01/15 10:16:47;;;;;;;14.17;10.70;;;2.80;99.90;;;;;;5058930;28;39185;-76
2021/01/15 10:19:13;;;;;;;15.70;10.57;;;2.80;99.90;;;;;;5076362;28;38279;-76
2021/01/15 10:21:40;;;;;;;17.90;10.83;;;2.90;99.90;;;;;;5075264;28;40714;-76
2021/01/15 10:24:07;;;;;;;13.60;10.27;;;2.90;99.90;;;;;;5090975;28;38878;-76
2021/01/15 10:26:35;;;;;;;18.17;10.60;;;2.90;99.90;;;;;;5069351;28;39570;-76
2021/01/15 10:29:06;;;;;;;19.10;10.57;;;3.00;99.90;;;;;;5071415;28;36579;-77
2021/01/15 10:31:54;;;;;;;16.13;11.10;;;3.00;99.90;;;;;;5084051;28;48368;-77
2021/01/15 10:34:25;;;;;;;17.87;11.33;;;3.00;99.90;;;;;;5058438;28;37810;-77
2021/01/15 10:36:51;;;;;;;15.63;10.77;;;3.00;99.90;;;;;;5085382;28;38421;-77
2021/01/15 10:39:18;;;;;;;14.90;10.40;;;3.00;99.90;;;;;;5083343;28;37381;-76
2021/01/15 10:41:47;;;;;;;16.23;10.37;;;3.00;99.90;;;;;;5067364;28;39358;-76
2021/01/15 10:44:16;;;;;;;15.23;10.53;;;3.10;99.90;;;;;;5090317;28;39197;-77
2021/01/15 10:46:44;;;;;;;16.90;11.17;;;3.00;99.90;;;;;;5082134;28;39510;-76
2021/01/15 10:49:11;;;;;;;15.93;10.77;;;3.10;99.90;;;;;;5076971;28;38038;-76
2021/01/15 10:51:48;;;;;;;18.63;11.20;;;3.10;99.90;;;;;;5093938;28;38272;-76
2021/01/15 10:54:14;;;;;;;16.97;10.97;;;3.20;99.90;;;;;;5073244;28;39216;-76
2021/01/15 10:56:45;;;;;;;15.07;11.27;;;3.30;99.90;;;;;;5091096;28;40473;-75
2021/01/15 10:59:12;;;;;;;16.03;11.07;;;3.30;99.90;;;;;;5094394;27;38318;-77
2021/01/15 11:01:43;;;;;;;17.13;10.97;;;3.30;99.90;;;;;;5080922;28;39864;-76
2021/01/15 11:04:11;;;;;;;19.57;12.07;;;3.30;99.90;;;;;;5052484;28;39161;-76
2021/01/15 11:06:39;;;;;;;16.23;10.50;;;3.30;99.90;;;;;;5079504;28;39453;-76
2021/01/15 11:09:07;;;;;;;15.50;10.37;;;3.40;99.90;;;;;;5087975;27;38177;-76
2021/01/15 11:11:33;;;;;;;17.40;11.57;;;3.50;99.90;;;;;;5075508;28;40076;-76
2021/01/15 11:14:00;;;;;;;16.47;10.53;;;3.50;99.90;;;;;;5063008;28;39212;-76
2021/01/15 11:16:27;;;;;;;13.13;10.17;;;3.60;99.90;;;;;;5069511;28;20044;-76
2021/01/15 11:18:53;;;;;;;14.90;10.67;;;3.60;99.90;;;;;;5075197;28;37930;-76
2021/01/15 11:21:24;;;;;;;17.40;10.93;;;3.50;99.90;;;;;;5077599;28;39433;-76
2021/01/15 11:23:51;;;;;;;13.80;10.83;;;3.50;99.90;;;;;;5066972;28;39521;-76
2021/01/15 11:26:31;;;;;;;15.30;10.27;;;3.60;99.90;;;;;;5060331;28;40323;-76
2021/01/15 11:29:06;;;;;;;14.77;10.73;;;3.60;99.90;;;;;;5069635;28;38876;-76
2021/01/15 11:31:32;;;;;;;14.47;9.53;;;3.60;99.90;;;;;;5080255;28;48675;-76
2021/01/15 11:33:58;;;;;;;17.23;10.17;;;3.60;99.90;;;;;;5086286;28;40589;-76
2021/01/15 11:36:30;;;;;;;13.00;9.40;;;3.70;99.90;;;;;;5080720;28;40457;-76
2021/01/15 11:39:00;;;;;;;14.47;10.00;;;3.70;99.90;;;;;;5085521;28;37301;-76
2021/01/15 11:41:26;;;;;;;15.17;10.10;;;3.80;99.90;;;;;;5074531;28;40477;-75
2021/01/15 11:43:52;;;;;;;15.67;11.23;;;3.70;99.90;;;;;;5076499;28;38776;-76
2021/01/15 11:46:20;;;;;;;15.43;11.20;;;3.70;99.90;;;;;;5070097;28;38992;-76
2021/01/15 11:48:46;;;;;;;14.30;9.90;;;3.70;99.90;;;;;;5082930;28;37955;-76
2021/01/15 11:51:14;;;;;;;18.23;10.80;;;3.70;99.90;;;;;;5064662;28;40958;-75
2021/01/15 11:53:40;;;;;;;16.40;10.47;;;3.70;99.90;;;;;;5062179;28;40263;-76
2021/01/15 11:56:07;;;;;;;14.93;9.67;;;3.60;99.90;;;;;;5067254;28;39323;-76
2021/01/15 11:58:34;;;;;;;14.03;9.10;;;3.70;99.90;;;;;;5047093;28;38960;-76
2021/01/15 12:01:00;;;;;;;17.47;10.90;;;3.70;99.90;;;;;;5066688;28;38863;-76
2021/01/15 12:03:27;;;;;;;14.90;9.83;;;3.70;99.90;;;;;;5075850;28;39530;-76
2021/01/15 12:05:53;;;;;;;14.93;10.17;;;3.70;99.90;;;;;;5085495;28;39373;-76
2021/01/15 12:08:20;;;;;;;15.73;11.03;;;3.80;99.90;;;;;;5062213;28;38579;-76
2021/01/15 12:10:54;;;;;;;15.33;11.10;;;3.70;99.90;;;;;;5060353;28;39770;-76
2021/01/15 12:13:23;;;;;;;15.70;10.77;;;3.70;99.90;;;;;;5062980;28;40500;-76
2021/01/15 12:15:54;;;;;;;15.53;11.03;;;3.80;99.90;;;;;;5081564;28;38739;-77
2021/01/15 12:18:22;;;;;;;15.70;10.93;;;3.80;99.90;;;;;;5064197;27;38126;-76
2021/01/15 12:20:48;;;;;;;15.17;11.17;;;3.80;99.90;;;;;;5059222;28;38579;-76
2021/01/15 12:23:16;;;;;;;20.10;11.93;;;3.80;99.90;;;;;;5077242;27;40415;-76
2021/01/15 12:25:42;;;;;;;17.50;11.10;;;3.70;99.90;;;;;;5083858;28;38999;-75
2021/01/15 12:28:08;;;;;;;15.77;11.77;;;3.70;99.90;;;;;;5080926;27;37947;-75
2021/01/15 12:30:35;;;;;;;17.33;11.70;;;3.70;99.90;;;;;;5081034;28;37193;-75
2021/01/15 12:33:10;;;;;;;17.83;11.00;;;3.90;99.90;;;;;;5073262;27;39028;-76
2021/01/15 12:35:38;;;;;;;16.87;10.40;;;3.90;99.90;;;;;;5051221;28;38813;-76
2021/01/15 12:38:08;;;;;;;16.43;11.13;;;3.80;99.90;;;;;;5089632;27;38558;-76
2021/01/15 12:40:35;;;;;;;14.07;10.83;;;3.80;99.90;;;;;;5090629;28;40636;-74
2021/01/15 12:43:03;;;;;;;18.83;10.90;;;3.80;99.90;;;;;;5094222;28;39624;-77
2021/01/15 12:45:33;;;;;;;15.90;10.37;;;3.80;99.90;;;;;;5078730;28;48349;-77
2021/01/15 12:47:59;;;;;;;16.73;10.73;;;3.80;99.90;;;;;;5086029;28;38312;-76
2021/01/15 12:50:25;;;;;;;17.27;10.37;;;3.90;99.90;;;;;;5061647;28;38800;-75
2021/01/15 12:52:55;;;;;;;16.07;9.03;;;3.90;99.90;;;;;;5070549;28;38284;-76
2021/01/15 12:55:22;;;;;;;13.03;9.00;;;3.90;99.90;;;;;;5050325;28;38856;-76